Time;durP1;ratioP1;P1;durP2;ratioP2;P2;SDS_P1;SDS_P2;PMS_P1;PMS_P2;Temp;Humidity;BMP_temperature;BMP_pressure;BME280_temperature;BME280_humidity;BME280_pressure;Samples;Min_cycle;Max_cycle;Signal;HPM_P1;HPM_P2
2023/10/27 00:01:04;;;;;;;9.23;3.92;;;;;;;15.80;73.11;97389.47;4442075;32;33782;-86
2023/10/27 00:03:32;;;;;;;10.07;3.72;;;;;;;15.80;73.24;97391.22;4441039;32;33709;-85
2023/10/27 00:05:59;;;;;;;7.45;3.60;;;;;;;15.83;73.21;97385.84;4446927;32;34549;-86
2023/10/27 00:08:27;;;;;;;7.45;3.60;;;;;;;15.78;73.56;97387.78;4443851;32;34183;-87
2023/10/27 00:10:54;;;;;;;9.88;3.83;;;;;;;15.83;73.44;97385.84;4435440;32;34758;-86
2023/10/27 00:13:22;;;;;;;9.27;4.20;;;;;;;15.88;73.55;97373.50;4436882;32;34580;-86
2023/10/27 00:15:49;;;;;;;8.45;3.22;;;;;;;15.89;73.46;97377.81;4438123;32;33821;-86
2023/10/27 00:18:17;;;;;;;10.75;3.45;;;;;;;15.91;73.48;97380.34;4448591;32;33298;-87
2023/10/27 00:21:03;;;;;;;9.90;3.25;;;;;;;15.90;73.87;97382.13;4446898;32;35775;-88
2023/10/27 00:23:32;;;;;;;6.32;3.05;;;;;;;15.94;73.66;97375.84;4436382;32;33561;-88
2023/10/27 00:26:00;;;;;;;7.72;3.05;;;;;;;15.90;74.26;97370.81;4436001;32;34155;-89
2023/10/27 00:28:29;;;;;;;7.03;2.50;;;;;;;15.97;73.84;97359.22;4421971;32;34324;-86
2023/10/27 00:30:58;;;;;;;7.65;2.80;;;;;;;16.02;73.79;97362.50;4437572;32;34031;-86
2023/10/27 00:33:26;;;;;;;7.50;2.70;;;;;;;15.99;73.90;97360.03;4435661;32;34368;-87
2023/10/27 00:35:54;;;;;;;6.10;2.25;;;;;;;16.03;74.02;97359.84;4436247;32;33783;-86
2023/10/27 00:38:21;;;;;;;8.38;3.03;;;;;;;16.04;73.96;97353.69;4436072;32;33921;-87
2023/10/27 00:40:49;;;;;;;8.88;3.10;;;;;;;16.02;74.17;97359.88;4435040;32;34081;-87
2023/10/27 00:43:17;;;;;;;7.90;2.85;;;;;;;16.21;73.84;97366.16;4435317;32;33609;-86
2023/10/27 00:45:47;;;;;;;7.55;2.80;;;;;;;16.00;74.67;97367.81;4435677;32;34588;-85
2023/10/27 00:48:20;;;;;;;9.38;2.80;;;;;;;15.95;75.33;97363.69;4421880;32;33820;-86
2023/10/27 00:50:49;;;;;;;9.75;3.08;;;;;;;15.90;75.74;97369.03;4439675;32;34126;-85
2023/10/27 00:53:20;;;;;;;7.87;2.78;;;;;;;15.91;75.68;97369.91;4449402;32;33748;-87
2023/10/27 00:55:49;;;;;;;10.50;2.87;;;;;;;15.96;75.71;97360.12;4443292;32;33953;-87
2023/10/27 00:58:17;;;;;;;8.75;2.78;;;;;;;16.00;75.73;97359.13;4429059;32;33964;-85
2023/10/27 01:00:44;;;;;;;9.55;3.17;;;;;;;16.01;75.74;97364.28;4441467;32;34095;-86
2023/10/27 01:03:12;;;;;;;11.55;3.33;;;;;;;15.89;76.58;97364.75;4439193;32;33492;-85
2023/10/27 01:05:39;;;;;;;9.63;2.97;;;;;;;16.00;76.29;97362.56;4447929;32;34717;-85
2023/10/27 01:08:07;;;;;;;6.22;2.53;;;;;;;16.07;76.00;97370.19;4442560;32;35113;-86
2023/10/27 01:10:35;;;;;;;10.02;3.05;;;;;;;16.07;76.14;97362.34;4452666;32;34862;-84
2023/10/27 01:13:02;;;;;;;9.45;2.83;;;;;;;16.05;76.57;97355.41;4450172;32;33998;-87
2023/10/27 01:15:30;;;;;;;7.18;2.17;;;;;;;16.25;75.97;97359.00;4448311;32;33619;-86
2023/10/27 01:17:58;;;;;;;9.52;2.78;;;;;;;16.13;76.72;97359.47;4448807;32;33955;-87
2023/10/27 01:20:26;;;;;;;10.32;3.00;;;;;;;16.23;76.44;97355.63;4447307;32;34347;-86
2023/10/27 01:22:55;;;;;;;11.32;3.15;;;;;;;16.15;76.86;97350.69;4437143;32;33672;-85
2023/10/27 01:25:25;;;;;;;12.05;2.87;;;;;;;16.20;76.69;97347.87;4435400;32;34556;-87
2023/10/27 01:27:52;;;;;;;8.95;2.42;;;;;;;16.15;77.15;97347.22;4435874;32;34100;-86
2023/10/27 01:30:20;;;;;;;8.13;2.28;;;;;;;16.34;76.32;97340.34;4449162;32;34418;-87
2023/10/27 01:32:47;;;;;;;11.20;3.10;;;;;;;16.26;76.94;97337.19;4445563;32;33223;-87
2023/10/27 01:35:15;;;;;;;9.63;2.85;;;;;;;16.33;76.59;97332.56;4443563;32;34791;-86
2023/10/27 01:37:42;;;;;;;7.50;2.47;;;;;;;16.14;77.90;97324.59;4443945;32;32405;-87
2023/10/27 01:40:11;;;;;;;10.13;2.72;;;;;;;16.22;77.22;97333.00;4445845;32;33661;-86
2023/10/27 01:42:38;;;;;;;6.97;2.70;;;;;;;16.33;77.05;97330.81;4438961;32;32917;-86
2023/10/27 01:45:06;;;;;;;6.35;2.35;;;;;;;16.28;77.46;97327.50;4435988;32;33193;-87
2023/10/27 01:47:34;;;;;;;11.85;3.10;;;;;;;16.32;78.03;97320.41;4437734;32;34866;-85
2023/10/27 01:50:01;;;;;;;7.65;2.60;;;;;;;16.48;77.05;97308.44;4443514;32;34029;-87
2023/10/27 01:52:29;;;;;;;10.05;3.20;;;;;;;16.44;77.00;97315.56;4445745;32;32957;-87
2023/10/27 01:54:57;;;;;;;8.00;2.60;;;;;;;16.59;76.39;97303.59;4437348;32;33837;-86
2023/10/27 01:57:25;;;;;;;7.72;2.17;;;;;;;16.38;77.54;97300.09;4439572;32;34136;-87
2023/10/27 01:59:53;;;;;;;8.70;2.58;;;;;;;16.59;76.78;97298.34;4440344;32;34899;-86
2023/10/27 02:02:20;;;;;;;8.02;2.70;;;;;;;16.54;76.83;97300.31;4422407;32;33545;-86
2023/10/27 02:04:48;;;;;;;7.25;2.40;;;;;;;16.76;76.05;97302.94;4445707;32;33428;-86
2023/10/27 02:07:16;;;;;;;10.63;2.40;;;;;;;16.69;76.04;97289.22;4439547;32;33629;-87
2023/10/27 02:09:43;;;;;;;7.07;2.40;;;;;;;16.62;76.89;97277.31;4445357;32;34348;-87
2023/10/27 02:12:12;;;;;;;11.25;2.47;;;;;;;16.58;76.90;97280.13;4444535;32;34249;-86
2023/10/27 02:14:39;;;;;;;7.28;2.85;;;;;;;16.85;76.12;97278.97;4443119;32;33923;-87
2023/10/27 02:17:07;;;;;;;9.00;2.28;;;;;;;16.66;76.70;97273.63;4448248;32;33385;-87
2023/10/27 02:19:34;;;;;;;6.20;2.40;;;;;;;16.53;77.40;97265.47;4440032;32;33705;-88
2023/10/27 02:22:02;;;;;;;6.68;2.30;;;;;;;16.51;77.97;97275.13;4438273;32;33166;-87
2023/10/27 02:24:30;;;;;;;8.32;2.35;;;;;;;16.79;76.84;97268.78;4430425;32;33469;-88
2023/10/27 02:26:58;;;;;;;9.02;2.40;;;;;;;16.62;77.60;97256.38;4444875;32;33720;-87
2023/10/27 02:29:26;;;;;;;5.22;2.10;;;;;;;16.63;77.51;97263.31;4446172;32;33963;-88
2023/10/27 02:31:55;;;;;;;8.02;2.75;;;;;;;16.50;77.89;97262.97;4438333;32;34371;-88
2023/10/27 02:34:24;;;;;;;9.93;3.00;;;;;;;16.53;78.09;97268.06;4437367;32;33439;-86
2023/10/27 02:36:51;;;;;;;8.77;2.42;;;;;;;16.57;78.38;97266.19;4424223;32;33072;-87
2023/10/27 02:39:19;;;;;;;7.78;2.10;;;;;;;16.65;78.12;97260.62;4432896;32;32010;-87
2023/10/27 02:41:47;;;;;;;7.78;2.40;;;;;;;16.45;79.33;97257.09;4439182;32;33557;-87
2023/10/27 02:44:14;;;;;;;10.02;2.97;;;;;;;16.53;78.89;97251.53;4427822;32;33473;-87
2023/10/27 02:46:42;;;;;;;6.72;2.50;;;;;;;16.30;80.01;97253.34;4440024;32;34274;-88
2023/10/27 02:49:09;;;;;;;5.28;2.25;;;;;;;16.22;80.88;97238.88;4442587;32;33632;-87
2023/10/27 02:51:37;;;;;;;7.70;2.47;;;;;;;16.38;80.37;97247.78;4446724;32;35750;-87
2023/10/27 02:54:05;;;;;;;6.22;2.05;;;;;;;16.34;80.73;97242.75;4446615;32;33931;-87
2023/10/27 02:56:32;;;;;;;6.18;2.10;;;;;;;16.28;81.24;97249.06;4439360;32;34558;-86
2023/10/27 02:59:00;;;;;;;5.03;1.67;;;;;;;16.16;81.75;97236.50;4424748;32;33205;-87
2023/10/27 03:01:28;;;;;;;5.07;1.80;;;;;;;16.25;81.97;97241.34;4441627;32;32019;-86
2023/10/27 03:03:55;;;;;;;4.85;1.90;;;;;;;16.41;81.26;97237.22;4450722;32;33835;-88
2023/10/27 03:06:23;;;;;;;5.35;1.40;;;;;;;16.45;80.54;97228.31;4445669;32;33746;-87
2023/10/27 03:08:50;;;;;;;6.72;1.80;;;;;;;16.37;81.69;97234.78;4441597;32;34122;-88
2023/10/27 03:11:18;;;;;;;5.25;1.60;;;;;;;16.42;81.35;97233.66;4437141;32;33652;-88
2023/10/27 03:13:45;;;;;;;2.60;1.20;;;;;;;16.36;81.57;97223.44;4431536;32;32506;-88
2023/10/27 03:16:16;;;;;;;4.57;1.25;;;;;;;16.17;82.34;97217.28;4420962;32;33381;-88
2023/10/27 03:18:44;;;;;;;3.12;1.20;;;;;;;16.38;81.78;97212.94;4441966;32;33854;-88
2023/10/27 03:21:12;;;;;;;4.00;1.27;;;;;;;16.30;81.63;97203.66;4431314;32;32884;-86
2023/10/27 03:23:40;;;;;;;3.10;1.00;;;;;;;16.36;81.58;97202.53;4438829;32;33103;-88
2023/10/27 03:26:07;;;;;;;2.92;1.40;;;;;;;16.49;81.13;97195.87;4436660;32;33817;-87
2023/10/27 03:28:34;;;;;;;3.20;1.45;;;;;;;16.51;81.05;97194.03;4435928;32;33986;-87
2023/10/27 03:31:02;;;;;;;2.75;1.30;;;;;;;16.70;80.13;97183.63;4444935;32;33337;-88
2023/10/27 03:33:30;;;;;;;3.12;1.10;;;;;;;16.66;80.26;97186.44;4441120;32;33433;-87
2023/10/27 03:35:57;;;;;;;4.43;1.27;;;;;;;16.48;80.81;97181.13;4436291;32;34541;-87
2023/10/27 03:38:25;;;;;;;2.75;1.27;;;;;;;16.36;81.64;97173.75;4436105;32;33781;-91
2023/10/27 03:40:54;;;;;;;3.47;1.45;;;;;;;16.45;81.39;97181.25;4422646;32;32959;-88
2023/10/27 03:43:21;;;;;;;3.47;1.60;;;;;;;16.41;81.78;97163.97;4423855;32;34686;-91
2023/10/27 03:45:49;;;;;;;6.43;2.45;;;;;;;16.52;81.24;97164.38;4442474;32;34811;-87
2023/10/27 03:48:17;;;;;;;4.62;2.67;;;;;;;16.29;82.30;97165.34;4441329;32;33994;-89
2023/10/27 03:50:45;;;;;;;6.37;2.90;;;;;;;15.99;84.32;97162.25;4449918;32;33267;-88
2023/10/27 03:53:12;;;;;;;8.65;3.17;;;;;;;16.34;82.90;97154.69;4444123;32;34696;-87
2023/10/27 03:55:40;;;;;;;5.00;3.00;;;;;;;16.30;82.85;97147.91;4441073;32;34191;-87
2023/10/27 03:58:17;;;;;;;7.12;3.40;;;;;;;16.30;83.30;97140.91;4444471;32;34797;-88
2023/10/27 04:00:49;;;;;;;5.43;3.50;;;;;;;16.13;84.42;97137.28;4435954;32;33275;-88
2023/10/27 04:03:17;;;;;;;4.70;3.65;;;;;;;16.16;83.79;97130.16;4435979;32;34658;-87
2023/10/27 04:05:44;;;;;;;6.53;3.50;;;;;;;16.27;82.89;97114.88;4449065;32;34038;-91
2023/10/27 04:08:12;;;;;;;7.97;3.60;;;;;;;16.19;83.16;97119.59;4439254;32;33715;-88
2023/10/27 04:10:40;;;;;;;5.93;3.85;;;;;;;16.40;82.59;97114.34;4433120;32;33564;-87
2023/10/27 04:13:07;;;;;;;6.80;4.37;;;;;;;16.27;83.18;97103.56;4434305;32;33323;-87
2023/10/27 04:15:35;;;;;;;5.32;4.07;;;;;;;16.31;83.08;97097.28;4434990;32;33912;-89
2023/10/27 04:18:03;;;;;;;5.57;3.80;;;;;;;16.24;83.76;97101.06;4440606;32;33829;-88
2023/10/27 04:20:31;;;;;;;5.25;3.25;;;;;;;16.27;83.60;97087.88;4434763;32;33741;-87
2023/10/27 04:22:58;;;;;;;6.90;2.50;;;;;;;16.16;84.25;97087.50;4437661;32;33441;-87
2023/10/27 04:25:27;;;;;;;3.65;2.00;;;;;;;16.23;83.68;97084.53;4448697;32;34910;-87
2023/10/27 04:27:55;;;;;;;3.85;1.85;;;;;;;16.43;82.69;97078.44;4438702;32;34219;-88
2023/10/27 04:30:22;;;;;;;3.58;1.52;;;;;;;16.27;83.14;97074.81;4447405;32;33605;-88
2023/10/27 04:32:52;;;;;;;3.72;1.90;;;;;;;15.94;84.62;97066.63;4448787;32;33779;-88
2023/10/27 04:35:20;;;;;;;3.00;1.90;;;;;;;15.81;86.77;97058.47;4437229;32;34402;-89
2023/10/27 04:37:47;;;;;;;4.18;2.40;;;;;;;15.77;87.32;97056.91;4444763;32;33861;-86
2023/10/27 04:40:15;;;;;;;4.43;2.55;;;;;;;15.87;86.35;97052.13;4425088;32;33227;-88
2023/10/27 04:42:42;;;;;;;3.78;2.28;;;;;;;15.79;86.99;97042.84;4427016;32;33490;-88
2023/10/27 04:45:10;;;;;;;4.57;2.70;;;;;;;15.92;85.78;97027.50;4446325;32;34309;-87
2023/10/27 04:47:38;;;;;;;4.78;2.90;;;;;;;15.83;86.35;97025.28;4437734;32;34414;-88
2023/10/27 04:50:09;;;;;;;4.50;3.08;;;;;;;15.71;87.03;97016.19;4423218;32;32979;-89
2023/10/27 04:52:36;;;;;;;5.53;3.40;;;;;;;15.64;87.81;97014.72;4434998;32;33809;-88
2023/10/27 04:55:05;;;;;;;4.45;3.05;;;;;;;15.34;89.30;97006.37;4446695;32;33335;-88
2023/10/27 04:57:34;;;;;;;6.05;3.30;;;;;;;15.75;87.47;97002.09;4440381;32;34223;-88
2023/10/27 05:00:05;;;;;;;5.18;3.60;;;;;;;15.63;87.76;96991.28;4447462;32;33991;-88
2023/10/27 05:02:33;;;;;;;6.00;5.03;;;;;;;15.87;86.74;96992.88;4450874;32;34091;-88
2023/10/27 05:05:00;;;;;;;6.32;4.37;;;;;;;15.37;89.89;96998.44;4437910;32;33753;-88
2023/10/27 05:07:28;;;;;;;6.18;3.60;;;;;;;15.84;87.25;96985.19;4417990;32;34775;-88
2023/10/27 05:09:56;;;;;;;5.75;3.92;;;;;;;15.97;85.92;96981.13;4448445;32;34358;-87
2023/10/27 05:12:23;;;;;;;7.25;4.10;;;;;;;15.75;87.05;96980.34;4449271;32;33842;-87
2023/10/27 05:14:50;;;;;;;7.62;4.28;;;;;;;15.74;87.28;96969.06;4430302;32;33863;-89
2023/10/27 05:17:18;;;;;;;6.68;3.62;;;;;;;15.74;86.43;96981.28;4437774;32;34858;-87
2023/10/27 05:19:48;;;;;;;5.05;3.00;;;;;;;15.91;85.93;96970.94;4438183;32;33454;-88
2023/10/27 05:22:15;;;;;;;4.80;2.92;;;;;;;15.84;86.01;96961.69;4433908;32;35248;-88
2023/10/27 05:24:43;;;;;;;5.62;3.30;;;;;;;15.74;87.11;96968.22;4446925;32;34172;-88
2023/10/27 05:27:10;;;;;;;6.82;3.30;;;;;;;15.79;86.67;96971.47;4439031;32;33613;-89
2023/10/27 05:29:38;;;;;;;7.47;3.85;;;;;;;15.88;85.81;96957.16;4449232;32;34073;-87
2023/10/27 05:32:05;;;;;;;7.62;4.20;;;;;;;15.73;86.79;96956.06;4431770;32;33478;-87
2023/10/27 05:34:33;;;;;;;6.00;3.53;;;;;;;15.55;88.11;96948.06;4430004;32;33868;-88
2023/10/27 05:37:00;;;;;;;5.45;3.75;;;;;;;15.69;87.16;96941.44;4436537;32;34994;-88
2023/10/27 05:39:28;;;;;;;5.37;3.42;;;;;;;15.71;86.59;96943.06;4436243;32;33555;-88
2023/10/27 05:41:56;;;;;;;5.97;3.20;;;;;;;15.71;87.00;96937.84;4436111;32;33333;-86
2023/10/27 05:44:23;;;;;;;4.47;2.72;;;;;;;15.74;86.34;96948.16;4437353;32;33829;-87
2023/10/27 05:46:51;;;;;;;4.75;3.00;;;;;;;15.80;86.31;96937.44;4444066;32;34280;-86
2023/10/27 05:49:18;;;;;;;6.18;3.28;;;;;;;15.79;86.45;96940.94;4440215;32;32125;-85
2023/10/27 05:51:47;;;;;;;5.22;3.03;;;;;;;15.61;86.87;96935.66;4443644;32;34601;-86
2023/10/27 05:54:14;;;;;;;4.50;2.75;;;;;;;15.73;86.12;96941.25;4438534;32;34498;-89
2023/10/27 05:56:42;;;;;;;4.95;2.58;;;;;;;15.61;86.99;96939.13;4438829;32;33797;-88
2023/10/27 05:59:09;;;;;;;4.93;3.10;;;;;;;15.53;87.16;96936.84;4449760;32;33270;-86
2023/10/27 06:01:37;;;;;;;4.37;2.83;;;;;;;15.57;87.62;96921.91;4440246;32;34061;-88
2023/10/27 06:04:05;;;;;;;6.15;3.50;;;;;;;15.59;87.14;96922.66;4443401;32;34128;-87
2023/10/27 06:06:32;;;;;;;8.23;4.10;;;;;;;15.50;87.88;96917.84;4452385;32;34018;-87
2023/10/27 06:09:00;;;;;;;6.37;4.28;;;;;;;15.45;88.71;96915.41;4418454;32;34425;-87
2023/10/27 06:11:27;;;;;;;6.60;5.00;;;;;;;15.42;88.52;96912.09;4441326;32;33447;-88
2023/10/27 06:13:58;;;;;;;5.28;4.30;;;;;;;15.46;88.47;96906.69;4439152;32;34131;-87
2023/10/27 06:16:30;;;;;;;8.48;4.68;;;;;;;15.55;88.06;96897.59;4421017;32;34139;-87
2023/10/27 06:18:57;;;;;;;7.12;5.20;;;;;;;15.42;88.81;96893.81;4441195;32;34311;-88
2023/10/27 06:21:25;;;;;;;9.35;5.40;;;;;;;15.74;87.15;96884.63;4440487;32;33644;-86
2023/10/27 06:23:53;;;;;;;9.38;6.10;;;;;;;15.15;90.90;96888.00;4427347;32;33640;-86
2023/10/27 06:26:20;;;;;;;8.43;7.47;;;;;;;15.68;87.77;96884.88;4442118;32;33417;-87
2023/10/27 06:28:48;;;;;;;9.82;8.43;;;;;;;15.48;88.45;96870.06;4445596;32;33449;-86
2023/10/27 06:31:16;;;;;;;10.57;9.57;;;;;;;15.37;89.20;96886.19;4450029;32;34565;-86
2023/10/27 06:33:43;;;;;;;11.75;10.30;;;;;;;15.40;89.33;96875.59;4444613;32;34849;-86
2023/10/27 06:36:11;;;;;;;12.73;11.43;;;;;;;15.07;91.59;96870.91;4436665;32;34888;-86
2023/10/27 06:38:42;;;;;;;14.93;11.45;;;;;;;15.27;90.54;96864.84;4446511;32;33326;-88
2023/10/27 06:41:10;;;;;;;13.52;12.13;;;;;;;15.51;89.56;96864.69;4445429;32;33623;-87
2023/10/27 06:43:37;;;;;;;16.20;12.57;;;;;;;15.65;88.10;96864.09;4443432;32;33711;-85
2023/10/27 06:46:05;;;;;;;13.75;12.35;;;;;;;15.47;89.41;96860.53;4435795;32;34276;-86
2023/10/27 06:48:32;;;;;;;16.08;14.60;;;;;;;15.62;88.58;96861.63;4437731;32;34592;-87
2023/10/27 06:51:00;;;;;;;18.62;15.52;;;;;;;15.39;90.14;96858.25;4446107;32;33641;-85
2023/10/27 06:53:28;;;;;;;18.42;16.55;;;;;;;15.46;90.08;96867.53;4449389;32;34095;-86
2023/10/27 06:55:55;;;;;;;18.12;16.02;;;;;;;15.22;91.56;96852.91;4434438;32;33424;-86
2023/10/27 06:58:23;;;;;;;19.67;17.23;;;;;;;15.39;90.80;96846.97;4448374;32;34457;-86
2023/10/27 07:00:51;;;;;;;19.33;16.87;;;;;;;15.25;92.30;96834.50;4423695;32;34453;-87
2023/10/27 07:03:18;;;;;;;18.50;16.52;;;;;;;15.39;91.08;96841.75;4443151;32;34035;-87
2023/10/27 07:05:59;;;;;;;17.50;15.40;;;;;;;15.55;90.31;96837.53;4440415;32;34308;-85
2023/10/27 07:08:27;;;;;;;15.85;14.32;;;;;;;15.53;90.06;96840.22;4447325;32;34460;-86
2023/10/27 07:10:57;;;;;;;15.80;14.13;;;;;;;15.84;87.95;96838.87;4437410;32;34321;-86
2023/10/27 07:13:26;;;;;;;15.90;14.40;;;;;;;15.61;89.00;96836.41;4442274;32;34007;-87
2023/10/27 07:15:54;;;;;;;16.00;14.40;;;;;;;15.37;91.20;96828.75;4426066;32;34855;-87
2023/10/27 07:18:22;;;;;;;16.90;12.88;;;;;;;15.58;89.77;96827.81;4432517;32;33482;-88
2023/10/27 07:20:51;;;;;;;14.85;13.43;;;;;;;15.34;90.92;96823.66;4436635;32;34977;-88
2023/10/27 07:23:19;;;;;;;18.48;14.05;;;;;;;15.31;91.66;96829.03;4418468;32;34255;-89
2023/10/27 07:25:46;;;;;;;16.30;13.27;;;;;;;15.37;91.51;96828.75;4447004;32;34887;-87
2023/10/27 07:28:14;;;;;;;14.82;11.88;;;;;;;15.52;90.04;96812.41;4432036;32;33862;-88
2023/10/27 07:30:42;;;;;;;11.63;10.43;;;;;;;15.34;91.35;96800.16;4397032;32;34249;-90
2023/10/27 07:33:10;;;;;;;12.73;10.40;;;;;;;15.33;91.91;96799.31;4450209;32;33525;-89
2023/10/27 07:35:38;;;;;;;12.82;10.25;;;;;;;15.57;90.00;96796.53;4438155;32;34855;-87
2023/10/27 07:38:06;;;;;;;11.93;9.50;;;;;;;15.60;89.81;96785.09;4451233;32;33562;-89
2023/10/27 07:40:34;;;;;;;14.00;9.15;;;;;;;15.54;90.59;96784.47;4438045;32;33181;-89
2023/10/27 07:43:02;;;;;;;11.25;9.63;;;;;;;15.67;89.64;96779.56;4436541;32;33897;-90
2023/10/27 07:45:30;;;;;;;11.68;8.98;;;;;;;15.48;89.98;96789.94;4450258;32;34776;-89
2023/10/27 07:47:58;;;;;;;11.18;8.75;;;;;;;15.77;88.95;96795.66;4423722;32;33818;-90
2023/10/27 07:50:26;;;;;;;10.77;8.35;;;;;;;15.66;89.78;96782.25;4449002;32;86883;-87
2023/10/27 07:52:53;;;;;;;10.10;7.60;;;;;;;15.74;89.48;96773.12;4430265;32;32901;-89
2023/10/27 07:55:21;;;;;;;10.00;7.07;;;;;;;15.78;88.25;96773.84;4438303;32;34678;-87
2023/10/27 07:57:49;;;;;;;11.55;7.35;;;;;;;15.79;88.46;96765.06;4435840;32;33624;-90
2023/10/27 08:00:16;;;;;;;9.00;7.10;;;;;;;15.73;89.01;96768.00;4435721;32;33772;-90
2023/10/27 08:02:44;;;;;;;8.02;7.00;;;;;;;15.76;89.19;96762.63;4434930;32;34006;-88
2023/10/27 08:05:12;;;;;;;8.73;6.32;;;;;;;15.89;88.66;96765.50;4440206;32;34178;-89
2023/10/27 08:07:39;;;;;;;7.78;5.43;;;;;;;16.06;86.62;96760.31;4439908;32;34633;-86
2023/10/27 08:10:07;;;;;;;15.77;6.25;;;;;;;15.95;87.78;96753.00;4438910;32;34640;-89
2023/10/27 08:12:35;;;;;;;9.85;5.28;;;;;;;15.70;89.08;96745.47;4434298;32;34008;-90
2023/10/27 08:15:07;;;;;;;11.73;7.72;;;;;;;15.92;88.09;96737.47;4409693;32;33728;-88
2023/10/27 08:17:36;;;;;;;8.13;5.60;;;;;;;15.86;88.27;96745.59;4435791;32;33749;-88
2023/10/27 08:20:04;;;;;;;9.27;4.85;;;;;;;16.19;86.60;96739.69;4422212;32;33775;-89
2023/10/27 08:22:32;;;;;;;9.68;4.82;;;;;;;15.97;87.41;96729.41;4422033;32;35193;-89
2023/10/27 08:25:00;;;;;;;10.00;5.70;;;;;;;15.96;87.20;96722.50;4436299;32;33745;-92
2023/10/27 08:27:30;;;;;;;8.57;4.80;;;;;;;15.72;89.46;96724.47;4435435;32;33664;-90
2023/10/27 08:29:57;;;;;;;10.50;4.65;;;;;;;15.78;88.70;96722.44;4435895;32;33990;-90
2023/10/27 08:32:26;;;;;;;8.43;4.15;;;;;;;15.93;87.65;96723.47;4434018;32;33794;-90
2023/10/27 08:34:54;;;;;;;10.65;4.75;;;;;;;16.01;86.92;96710.88;4435838;32;34382;-93
2023/10/27 08:37:21;;;;;;;13.25;4.15;;;;;;;15.84;88.27;96718.69;4435745;32;33457;-91
2023/10/27 08:39:49;;;;;;;10.35;4.35;;;;;;;15.64;88.89;96703.06;4435937;32;34571;-89
2023/10/27 08:42:18;;;;;;;10.40;4.15;;;;;;;15.98;87.45;96690.12;4444299;32;34583;-91
2023/10/27 08:44:45;;;;;;;9.20;4.10;;;;;;;15.96;87.22;96684.13;4423941;32;33413;-89
2023/10/27 08:47:13;;;;;;;9.30;4.87;;;;;;;15.86;87.60;96680.25;4431158;32;34263;-89
2023/10/27 08:49:41;;;;;;;7.85;3.87;;;;;;;15.89;87.86;96674.06;4446758;32;33520;-90
2023/10/27 08:52:09;;;;;;;9.25;4.40;;;;;;;15.98;87.28;96671.81;4432920;32;36310;-89
2023/10/27 08:54:43;;;;;;;9.00;4.45;;;;;;;15.97;86.90;96661.47;4422514;32;32745;-89
2023/10/27 08:57:11;;;;;;;8.02;4.35;;;;;;;16.13;86.73;96658.94;4445550;32;33489;-89
2023/10/27 08:59:39;;;;;;;8.98;4.50;;;;;;;15.82;88.27;96652.59;4458806;32;33634;-92
2023/10/27 09:02:06;;;;;;;10.48;4.95;;;;;;;15.98;87.25;96650.91;4424556;32;34586;-89
2023/10/27 09:04:42;;;;;;;7.37;3.95;;;;;;;16.08;86.84;96648.72;4447434;32;34218;-89
2023/10/27 09:07:10;;;;;;;9.13;4.20;;;;;;;16.13;86.53;96645.88;4435424;32;33426;-88
2023/10/27 09:09:38;;;;;;;8.95;4.40;;;;;;;16.13;86.95;96641.47;4426736;32;33442;-89
2023/10/27 09:12:05;;;;;;;9.25;4.22;;;;;;;16.01;87.80;96637.72;4438383;32;34449;-91
2023/10/27 09:14:33;;;;;;;10.70;4.50;;;;;;;16.16;86.23;96624.81;4422207;32;34688;-89
2023/10/27 09:17:09;;;;;;;9.55;3.97;;;;;;;15.79;88.65;96622.22;4438169;32;33626;-89
2023/10/27 09:19:39;;;;;;;12.43;5.00;;;;;;;15.79;89.19;96624.00;4398386;32;33687;-88
2023/10/27 09:22:14;;;;;;;11.15;4.80;;;;;;;16.08;87.11;96621.72;4441190;32;33525;-89
2023/10/27 09:24:43;;;;;;;10.90;3.85;;;;;;;16.18;87.19;96602.06;4410803;32;34527;-89
2023/10/27 09:27:13;;;;;;;9.10;3.83;;;;;;;16.11;86.90;96596.28;4437132;32;33095;-88
2023/10/27 09:29:41;;;;;;;10.43;4.53;;;;;;;16.00;87.78;96599.44;4410348;32;32964;-91
2023/10/27 09:32:26;;;;;;;11.05;4.60;;;;;;;15.90;88.18;96592.97;4436942;32;34024;-88
2023/10/27 09:35:13;;;;;;;11.12;5.15;;;;;;;16.01;88.06;96585.44;4423218;32;34756;-89
2023/10/27 09:37:41;;;;;;;10.70;5.03;;;;;;;15.68;90.15;96582.75;4423451;32;33410;-89
2023/10/27 09:40:09;;;;;;;9.35;4.62;;;;;;;16.16;87.92;96572.53;4423410;32;33798;-88
2023/10/27 09:42:38;;;;;;;10.10;4.20;;;;;;;16.14;87.84;96576.97;4410569;32;32897;-88
2023/10/27 09:45:13;;;;;;;8.30;3.75;;;;;;;15.95;89.07;96585.78;4437126;32;34194;-89
2023/10/27 09:47:41;;;;;;;7.20;3.97;;;;;;;16.20;87.78;96563.59;4437312;32;33195;-87
2023/10/27 09:50:17;;;;;;;8.23;3.55;;;;;;;16.27;87.52;96549.28;4436955;32;33956;-88
2023/10/27 09:52:45;;;;;;;10.40;3.78;;;;;;;16.28;87.14;96556.22;4423386;32;33696;-88
2023/10/27 09:55:14;;;;;;;8.57;3.80;;;;;;;16.39;86.68;96558.28;4423284;32;34163;-88
2023/10/27 09:57:44;;;;;;;8.82;3.70;;;;;;;16.34;86.34;96529.75;4436867;32;34079;-88
2023/10/27 10:00:18;;;;;;;8.88;3.78;;;;;;;16.58;85.63;96532.00;4423783;32;33608;-88
2023/10/27 10:02:46;;;;;;;8.32;3.47;;;;;;;16.54;85.72;96526.91;4423086;32;33588;-87
2023/10/27 10:05:14;;;;;;;7.50;3.72;;;;;;;16.59;85.49;96528.44;4423092;32;34138;-88
2023/10/27 10:07:52;;;;;;;6.75;3.80;;;;;;;16.68;85.02;96522.75;4437174;32;32890;-87
2023/10/27 10:10:33;;;;;;;9.30;4.00;;;;;;;16.74;84.57;96518.06;4423917;32;34028;-88
2023/10/27 10:13:07;;;;;;;9.60;3.58;;;;;;;16.79;83.93;96525.66;4423600;32;34327;-86
2023/10/27 10:15:58;;;;;;;8.77;3.50;;;;;;;16.92;83.54;96513.56;4437084;32;34657;-88
2023/10/27 10:18:44;;;;;;;9.82;3.50;;;;;;;17.00;82.83;96503.53;4422941;32;32914;-86
2023/10/27 10:21:33;;;;;;;5.97;2.33;;;;;;;16.72;84.41;96498.09;4437137;32;33370;-87
2023/10/27 10:24:03;;;;;;;6.87;2.40;;;;;;;16.33;85.77;96515.00;4437064;32;33613;-86
2023/10/27 10:27:04;;;;;;;6.90;2.97;;;;;;;16.61;83.88;96513.53;4437037;32;34882;-86
2023/10/27 10:29:32;;;;;;;7.90;3.70;;;;;;;16.92;82.40;96508.34;4436669;32;34330;-87
2023/10/27 10:32:31;;;;;;;6.35;2.97;;;;;;;16.97;82.36;96493.25;4437026;32;34890;-87
2023/10/27 10:35:21;;;;;;;5.63;3.30;;;;;;;16.98;82.56;96491.47;4423009;32;34149;-87
2023/10/27 10:37:51;;;;;;;9.05;3.08;;;;;;;16.84;83.76;96494.84;4410086;32;33711;-87
2023/10/27 10:40:23;;;;;;;9.02;3.40;;;;;;;16.71;84.19;96486.78;4423095;32;34465;-87
2023/10/27 10:43:16;;;;;;;7.93;3.22;;;;;;;17.01;82.28;96486.06;4436666;32;33506;-88
2023/10/27 10:45:45;;;;;;;6.65;3.00;;;;;;;17.18;81.61;96482.50;4423044;32;34800;-86
2023/10/27 10:48:13;;;;;;;10.00;3.08;;;;;;;17.11;81.67;96466.28;4423002;32;33197;-87
2023/10/27 10:50:41;;;;;;;12.68;4.50;;;;;;;17.12;81.90;96468.00;4422623;32;33698;-87
2023/10/27 10:53:16;;;;;;;8.70;3.35;;;;;;;17.30;80.98;96470.47;4436483;32;33565;-87
2023/10/27 10:55:45;;;;;;;7.18;3.10;;;;;;;17.15;82.29;96453.84;4422794;32;33719;-87
2023/10/27 10:58:23;;;;;;;10.10;3.50;;;;;;;16.99;83.24;96446.88;4436572;32;34537;-87
2023/10/27 11:00:51;;;;;;;6.62;2.95;;;;;;;17.01;83.45;96449.44;4436634;32;34207;-86
2023/10/27 11:03:21;;;;;;;6.93;2.80;;;;;;;17.23;82.28;96442.00;4422656;32;33621;-87
2023/10/27 11:05:51;;;;;;;6.87;3.10;;;;;;;17.15;83.15;96444.22;4422606;32;33892;-87
2023/10/27 11:08:24;;;;;;;7.80;3.40;;;;;;;17.04;84.02;96446.59;4436379;32;34519;-86
2023/10/27 11:11:09;;;;;;;8.60;3.03;;;;;;;17.02;84.10;96449.31;4422691;32;33307;-87
2023/10/27 11:13:51;;;;;;;10.70;3.00;;;;;;;17.09;83.75;96460.31;4422781;32;32926;-85
2023/10/27 11:16:25;;;;;;;11.50;4.00;;;;;;;16.95;85.39;96479.37;4422660;32;33708;-86
2023/10/27 11:18:57;;;;;;;13.30;5.30;;;;;;;16.92;85.78;96478.72;4422568;32;34018;-85
2023/10/27 11:21:29;;;;;;;11.88;4.72;;;;;;;17.12;84.82;96511.63;4436690;32;33279;-86
2023/10/27 11:23:57;;;;;;;7.10;4.30;;;;;;;16.85;86.86;96537.53;4436751;32;33928;-86
2023/10/27 11:26:26;;;;;;;11.82;4.05;;;;;;;17.00;86.17;96548.00;4436630;32;35031;-87
2023/10/27 11:28:58;;;;;;;8.93;3.47;;;;;;;16.95;86.55;96568.38;4422607;32;34812;-86
2023/10/27 11:31:27;;;;;;;9.52;2.80;;;;;;;17.03;86.28;96558.31;4436562;32;33492;-86
2023/10/27 11:34:02;;;;;;;6.40;2.60;;;;;;;16.74;88.12;96553.81;4435744;32;34626;-86
2023/10/27 11:36:33;;;;;;;6.53;2.75;;;;;;;16.58;89.66;96566.84;4422499;32;34847;-87
2023/10/27 11:39:18;;;;;;;3.80;1.83;;;;;;;16.70;88.48;96554.88;4422520;32;34721;-87